sensor_id;sensor_type;location;lat;lon;timestamp;temperature;humidity
39219;DHT22;24934;52.752;6.964;2022-12-29T00:01:35;9.70;99.90
39219;DHT22;24934;52.752;6.964;2022-12-29T00:04:01;9.70;99.90
39219;DHT22;24934;52.752;6.964;2022-12-29T00:06:27;9.80;99.90
39219;DHT22;24934;52.752;6.964;2022-12-29T00:08:55;9.80;99.90
39219;DHT22;24934;52.752;6.964;2022-12-29T00:11:24;9.80;99.90
39219;DHT22;24934;52.752;6.964;2022-12-29T00:13:53;9.90;99.90
39219;DHT22;24934;52.752;6.964;2022-12-29T00:16:40;9.90;99.90
39219;DHT22;24934;52.752;6.964;2022-12-29T00:19:06;9.90;99.90
39219;DHT22;24934;52.752;6.964;2022-12-29T00:21:31;9.90;99.90
39219;DHT22;24934;52.752;6.964;2022-12-29T00:24:21;9.90;99.90
39219;DHT22;24934;52.752;6.964;2022-12-29T00:29:49;9.90;99.90
39219;DHT22;24934;52.752;6.964;2022-12-29T00:32:33;9.90;99.90
39219;DHT22;24934;52.752;6.964;2022-12-29T00:35:29;9.90;99.90
39219;DHT22;24934;52.752;6.964;2022-12-29T00:37:58;9.90;99.90
39219;DHT22;24934;52.752;6.964;2022-12-29T00:40:42;9.80;99.90
39219;DHT22;24934;52.752;6.964;2022-12-29T00:43:29;9.80;99.90
39219;DHT22;24934;52.752;6.964;2022-12-29T00:46:13;9.90;99.90
39219;DHT22;24934;52.752;6.964;2022-12-29T00:48:39;9.90;99.90
39219;DHT22;24934;52.752;6.964;2022-12-29T00:51:23;9.90;99.90
39219;DHT22;24934;52.752;6.964;2022-12-29T00:53:51;9.90;99.90
39219;DHT22;24934;52.752;6.964;2022-12-29T00:56:16;9.90;99.90
39219;DHT22;24934;52.752;6.964;2022-12-29T00:58:42;9.90;99.90
39219;DHT22;24934;52.752;6.964;2022-12-29T01:01:08;9.90;99.90
39219;DHT22;24934;52.752;6.964;2022-12-29T01:03:36;9.90;99.90
39219;DHT22;24934;52.752;6.964;2022-12-29T01:06:03;9.90;99.90
39219;DHT22;24934;52.752;6.964;2022-12-29T01:08:29;10.00;99.90
39219;DHT22;24934;52.752;6.964;2022-12-29T01:10:59;10.00;99.90
39219;DHT22;24934;52.752;6.964;2022-12-29T01:13:25;10.00;99.90
39219;DHT22;24934;52.752;6.964;2022-12-29T01:15:51;10.00;99.90
39219;DHT22;24934;52.752;6.964;2022-12-29T01:18:17;10.10;99.90
39219;DHT22;24934;52.752;6.964;2022-12-29T01:20:43;10.10;99.90
39219;DHT22;24934;52.752;6.964;2022-12-29T01:23:09;10.10;99.90
39219;DHT22;24934;52.752;6.964;2022-12-29T01:25:35;10.10;99.90
39219;DHT22;24934;52.752;6.964;2022-12-29T01:28:00;10.20;99.90
39219;DHT22;24934;52.752;6.964;2022-12-29T01:30:26;10.20;99.90
39219;DHT22;24934;52.752;6.964;2022-12-29T01:32:52;10.20;99.90
39219;DHT22;24934;52.752;6.964;2022-12-29T01:35:17;10.20;99.90
39219;DHT22;24934;52.752;6.964;2022-12-29T01:37:43;10.30;99.90
39219;DHT22;24934;52.752;6.964;2022-12-29T01:40:09;10.30;99.90
39219;DHT22;24934;52.752;6.964;2022-12-29T01:42:35;10.30;99.90
39219;DHT22;24934;52.752;6.964;2022-12-29T01:45:09;10.30;99.90
39219;DHT22;24934;52.752;6.964;2022-12-29T01:47:39;10.40;99.90
39219;DHT22;24934;52.752;6.964;2022-12-29T01:50:23;10.40;99.90
39219;DHT22;24934;52.752;6.964;2022-12-29T01:53:31;10.40;99.90
39219;DHT22;24934;52.752;6.964;2022-12-29T01:55:59;10.40;99.90
39219;DHT22;24934;52.752;6.964;2022-12-29T01:58:32;10.40;99.90
39219;DHT22;24934;52.752;6.964;2022-12-29T02:00:59;10.30;99.90
39219;DHT22;24934;52.752;6.964;2022-12-29T02:03:26;10.40;99.90
39219;DHT22;24934;52.752;6.964;2022-12-29T02:06:30;10.40;99.90
39219;DHT22;24934;52.752;6.964;2022-12-29T02:08:57;10.40;99.90
39219;DHT22;24934;52.752;6.964;2022-12-29T02:11:25;10.30;99.90
39219;DHT22;24934;52.752;6.964;2022-12-29T02:13:52;10.30;99.90
39219;DHT22;24934;52.752;6.964;2022-12-29T02:19:21;10.30;99.90
39219;DHT22;24934;52.752;6.964;2022-12-29T02:22:07;10.30;99.90
39219;DHT22;24934;52.752;6.964;2022-12-29T02:27:43;10.30;99.90
39219;DHT22;24934;52.752;6.964;2022-12-29T02:30:36;10.30;99.90
39219;DHT22;24934;52.752;6.964;2022-12-29T02:33:38;10.30;99.90
39219;DHT22;24934;52.752;6.964;2022-12-29T02:36:21;10.30;99.90
39219;DHT22;24934;52.752;6.964;2022-12-29T02:44:12;10.20;99.90
39219;DHT22;24934;52.752;6.964;2022-12-29T02:47:04;10.10;99.90
39219;DHT22;24934;52.752;6.964;2022-12-29T02:49:36;10.10;99.90
39219;DHT22;24934;52.752;6.964;2022-12-29T02:52:08;10.10;99.90
39219;DHT22;24934;52.752;6.964;2022-12-29T02:54:37;10.00;99.90
39219;DHT22;24934;52.752;6.964;2022-12-29T02:59:51;9.90;99.90
39219;DHT22;24934;52.752;6.964;2022-12-29T03:02:39;9.90;99.90
39219;DHT22;24934;52.752;6.964;2022-12-29T03:07:55;9.80;99.90
39219;DHT22;24934;52.752;6.964;2022-12-29T03:10:37;9.70;99.90
39219;DHT22;24934;52.752;6.964;2022-12-29T03:16:11;9.70;99.90
39219;DHT22;24934;52.752;6.964;2022-12-29T03:18:45;9.80;99.90
39219;DHT22;24934;52.752;6.964;2022-12-29T03:21:17;9.80;99.90
39219;DHT22;24934;52.752;6.964;2022-12-29T03:23:45;9.80;99.90
39219;DHT22;24934;52.752;6.964;2022-12-29T03:26:16;9.80;99.90
39219;DHT22;24934;52.752;6.964;2022-12-29T03:28:47;9.80;99.90
39219;DHT22;24934;52.752;6.964;2022-12-29T03:31:19;9.80;99.90
39219;DHT22;24934;52.752;6.964;2022-12-29T03:33:48;9.80;99.90
39219;DHT22;24934;52.752;6.964;2022-12-29T03:36:23;9.80;99.90
39219;DHT22;24934;52.752;6.964;2022-12-29T03:38:59;9.80;99.90
39219;DHT22;24934;52.752;6.964;2022-12-29T03:41:30;9.90;99.90
39219;DHT22;24934;52.752;6.964;2022-12-29T03:43:57;9.90;99.90
39219;DHT22;24934;52.752;6.964;2022-12-29T03:46:22;9.90;99.90
39219;DHT22;24934;52.752;6.964;2022-12-29T03:48:48;9.90;99.90
39219;DHT22;24934;52.752;6.964;2022-12-29T03:51:14;9.90;99.90
39219;DHT22;24934;52.752;6.964;2022-12-29T03:53:42;9.90;99.90
39219;DHT22;24934;52.752;6.964;2022-12-29T03:56:10;9.90;99.90
39219;DHT22;24934;52.752;6.964;2022-12-29T03:58:35;9.90;99.90
39219;DHT22;24934;52.752;6.964;2022-12-29T04:01:01;9.90;99.90
39219;DHT22;24934;52.752;6.964;2022-12-29T04:03:26;9.90;99.90
39219;DHT22;24934;52.752;6.964;2022-12-29T04:05:52;10.00;99.90
39219;DHT22;24934;52.752;6.964;2022-12-29T04:08:18;9.90;99.90
39219;DHT22;24934;52.752;6.964;2022-12-29T04:10:43;9.90;99.90
39219;DHT22;24934;52.752;6.964;2022-12-29T04:13:09;10.00;99.90
39219;DHT22;24934;52.752;6.964;2022-12-29T04:15:37;10.00;99.90
39219;DHT22;24934;52.752;6.964;2022-12-29T04:18:02;9.90;99.90
39219;DHT22;24934;52.752;6.964;2022-12-29T04:20:28;10.00;99.90
39219;DHT22;24934;52.752;6.964;2022-12-29T04:23:12;10.00;99.90
39219;DHT22;24934;52.752;6.964;2022-12-29T04:25:40;10.00;99.90
39219;DHT22;24934;52.752;6.964;2022-12-29T04:28:06;10.00;99.90
39219;DHT22;24934;52.752;6.964;2022-12-29T04:30:33;9.90;99.90
39219;DHT22;24934;52.752;6.964;2022-12-29T04:32:58;9.90;99.90
39219;DHT22;24934;52.752;6.964;2022-12-29T04:35:24;9.90;99.90
39219;DHT22;24934;52.752;6.964;2022-12-29T04:37:49;9.90;99.90
39219;DHT22;24934;52.752;6.964;2022-12-29T04:40:15;9.90;99.90
39219;DHT22;24934;52.752;6.964;2022-12-29T04:42:41;9.90;99.90
39219;DHT22;24934;52.752;6.964;2022-12-29T04:45:07;9.90;99.90
39219;DHT22;24934;52.752;6.964;2022-12-29T04:47:33;9.90;99.90
39219;DHT22;24934;52.752;6.964;2022-12-29T04:49:58;9.90;99.90
39219;DHT22;24934;52.752;6.964;2022-12-29T04:52:24;9.90;99.90
39219;DHT22;24934;52.752;6.964;2022-12-29T04:54:51;9.80;99.90
39219;DHT22;24934;52.752;6.964;2022-12-29T04:57:17;9.90;99.90
39219;DHT22;24934;52.752;6.964;2022-12-29T04:59:42;9.90;99.90
39219;DHT22;24934;52.752;6.964;2022-12-29T05:02:08;9.80;99.90
39219;DHT22;24934;52.752;6.964;2022-12-29T05:04:33;9.80;99.90
39219;DHT22;24934;52.752;6.964;2022-12-29T05:06:59;9.80;99.90
39219;DHT22;24934;52.752;6.964;2022-12-29T05:09:24;9.70;99.90
39219;DHT22;24934;52.752;6.964;2022-12-29T05:11:50;9.70;99.90
39219;DHT22;24934;52.752;6.964;2022-12-29T05:14:16;9.60;99.90
39219;DHT22;24934;52.752;6.964;2022-12-29T05:16:41;9.60;99.90
39219;DHT22;24934;52.752;6.964;2022-12-29T05:19:07;9.70;99.90
39219;DHT22;24934;52.752;6.964;2022-12-29T05:21:33;9.70;99.90
39219;DHT22;24934;52.752;6.964;2022-12-29T05:24:01;9.70;99.90
39219;DHT22;24934;52.752;6.964;2022-12-29T05:26:27;9.80;99.90
39219;DHT22;24934;52.752;6.964;2022-12-29T05:28:52;9.80;99.90
39219;DHT22;24934;52.752;6.964;2022-12-29T05:31:18;9.80;99.90
39219;DHT22;24934;52.752;6.964;2022-12-29T05:33:44;9.80;99.90
39219;DHT22;24934;52.752;6.964;2022-12-29T05:36:10;9.80;99.90
39219;DHT22;24934;52.752;6.964;2022-12-29T05:38:38;9.80;99.90
39219;DHT22;24934;52.752;6.964;2022-12-29T05:41:04;9.80;99.90
39219;DHT22;24934;52.752;6.964;2022-12-29T05:43:29;9.70;99.90
39219;DHT22;24934;52.752;6.964;2022-12-29T05:45:55;9.70;99.90
39219;DHT22;24934;52.752;6.964;2022-12-29T05:48:24;9.60;99.90
39219;DHT22;24934;52.752;6.964;2022-12-29T05:50:50;9.60;99.90
39219;DHT22;24934;52.752;6.964;2022-12-29T05:53:16;9.50;99.90
39219;DHT22;24934;52.752;6.964;2022-12-29T05:55:43;9.50;99.90
39219;DHT22;24934;52.752;6.964;2022-12-29T05:58:09;9.50;99.90
39219;DHT22;24934;52.752;6.964;2022-12-29T06:00:35;9.60;99.90
39219;DHT22;24934;52.752;6.964;2022-12-29T06:03:00;9.60;99.90
39219;DHT22;24934;52.752;6.964;2022-12-29T06:05:26;9.60;99.90
39219;DHT22;24934;52.752;6.964;2022-12-29T06:07:52;9.60;99.90
39219;DHT22;24934;52.752;6.964;2022-12-29T06:10:18;9.60;99.90
39219;DHT22;24934;52.752;6.964;2022-12-29T06:12:44;9.50;99.90
39219;DHT22;24934;52.752;6.964;2022-12-29T06:15:10;9.50;99.90
39219;DHT22;24934;52.752;6.964;2022-12-29T06:17:35;9.50;99.90
39219;DHT22;24934;52.752;6.964;2022-12-29T06:20:02;9.50;99.90
39219;DHT22;24934;52.752;6.964;2022-12-29T06:22:27;9.50;99.90
39219;DHT22;24934;52.752;6.964;2022-12-29T06:24:53;9.50;99.90
39219;DHT22;24934;52.752;6.964;2022-12-29T06:27:18;9.50;99.90
39219;DHT22;24934;52.752;6.964;2022-12-29T06:29:44;9.50;99.90
39219;DHT22;24934;52.752;6.964;2022-12-29T06:32:10;9.50;99.90
39219;DHT22;24934;52.752;6.964;2022-12-29T06:34:38;9.50;99.90
39219;DHT22;24934;52.752;6.964;2022-12-29T06:37:04;9.50;99.90
39219;DHT22;24934;52.752;6.964;2022-12-29T06:39:30;9.50;99.90
39219;DHT22;24934;52.752;6.964;2022-12-29T06:41:55;9.50;99.90
39219;DHT22;24934;52.752;6.964;2022-12-29T06:44:23;9.50;99.90
39219;DHT22;24934;52.752;6.964;2022-12-29T06:46:52;9.50;99.90
39219;DHT22;24934;52.752;6.964;2022-12-29T06:49:17;9.50;99.90
39219;DHT22;24934;52.752;6.964;2022-12-29T06:51:52;9.50;99.90
39219;DHT22;24934;52.752;6.964;2022-12-29T06:54:18;9.50;99.90
39219;DHT22;24934;52.752;6.964;2022-12-29T06:56:43;9.40;99.90
39219;DHT22;24934;52.752;6.964;2022-12-29T06:59:09;9.40;99.90
39219;DHT22;24934;52.752;6.964;2022-12-29T07:01:35;9.30;99.90
39219;DHT22;24934;52.752;6.964;2022-12-29T07:04:02;9.30;99.90
39219;DHT22;24934;52.752;6.964;2022-12-29T07:06:29;9.30;99.90
39219;DHT22;24934;52.752;6.964;2022-12-29T07:08:55;9.30;99.90
39219;DHT22;24934;52.752;6.964;2022-12-29T07:11:23;9.30;99.90
39219;DHT22;24934;52.752;6.964;2022-12-29T07:13:48;9.30;99.90
39219;DHT22;24934;52.752;6.964;2022-12-29T07:16:14;9.20;99.90
39219;DHT22;24934;52.752;6.964;2022-12-29T07:18:40;9.10;99.90
39219;DHT22;24934;52.752;6.964;2022-12-29T07:21:05;9.10;99.90
39219;DHT22;24934;52.752;6.964;2022-12-29T07:23:31;9.10;99.90
39219;DHT22;24934;52.752;6.964;2022-12-29T07:26:05;9.10;99.90
39219;DHT22;24934;52.752;6.964;2022-12-29T07:28:31;9.10;99.90
39219;DHT22;24934;52.752;6.964;2022-12-29T07:31:01;9.10;99.90
39219;DHT22;24934;52.752;6.964;2022-12-29T07:33:30;9.10;99.90
39219;DHT22;24934;52.752;6.964;2022-12-29T07:35:56;9.10;99.90
39219;DHT22;24934;52.752;6.964;2022-12-29T07:38:22;9.10;99.90
39219;DHT22;24934;52.752;6.964;2022-12-29T07:40:56;9.10;99.90
39219;DHT22;24934;52.752;6.964;2022-12-29T07:43:21;9.10;99.90
39219;DHT22;24934;52.752;6.964;2022-12-29T07:45:48;9.10;99.90
39219;DHT22;24934;52.752;6.964;2022-12-29T07:48:13;9.20;99.90
39219;DHT22;24934;52.752;6.964;2022-12-29T07:50:39;9.20;99.90
39219;DHT22;24934;52.752;6.964;2022-12-29T07:53:04;9.20;99.90
39219;DHT22;24934;52.752;6.964;2022-12-29T07:55:30;9.20;99.90
39219;DHT22;24934;52.752;6.964;2022-12-29T07:57:56;9.20;99.90
39219;DHT22;24934;52.752;6.964;2022-12-29T08:00:22;9.20;99.90
39219;DHT22;24934;52.752;6.964;2022-12-29T08:02:48;9.20;99.90
39219;DHT22;24934;52.752;6.964;2022-12-29T08:05:14;9.10;99.90
39219;DHT22;24934;52.752;6.964;2022-12-29T08:07:42;9.10;99.90
39219;DHT22;24934;52.752;6.964;2022-12-29T08:10:09;9.10;99.90
39219;DHT22;24934;52.752;6.964;2022-12-29T08:12:35;9.00;99.90
39219;DHT22;24934;52.752;6.964;2022-12-29T08:15:00;9.00;99.90
39219;DHT22;24934;52.752;6.964;2022-12-29T08:17:26;9.00;99.90
39219;DHT22;24934;52.752;6.964;2022-12-29T08:19:51;9.00;99.90
39219;DHT22;24934;52.752;6.964;2022-12-29T08:22:17;9.00;99.90
39219;DHT22;24934;52.752;6.964;2022-12-29T08:24:43;9.00;99.90
39219;DHT22;24934;52.752;6.964;2022-12-29T08:27:11;9.10;99.90
39219;DHT22;24934;52.752;6.964;2022-12-29T08:29:36;9.10;99.90
39219;DHT22;24934;52.752;6.964;2022-12-29T08:32:02;9.10;99.90
39219;DHT22;24934;52.752;6.964;2022-12-29T08:34:30;9.00;99.90
39219;DHT22;24934;52.752;6.964;2022-12-29T08:36:55;9.00;99.90
39219;DHT22;24934;52.752;6.964;2022-12-29T08:39:21;9.00;99.90
39219;DHT22;24934;52.752;6.964;2022-12-29T08:41:47;9.00;99.90
39219;DHT22;24934;52.752;6.964;2022-12-29T08:44:12;9.00;99.90
39219;DHT22;24934;52.752;6.964;2022-12-29T08:46:38;9.00;99.90
39219;DHT22;24934;52.752;6.964;2022-12-29T08:49:04;9.00;99.90
39219;DHT22;24934;52.752;6.964;2022-12-29T08:51:30;9.00;99.90
39219;DHT22;24934;52.752;6.964;2022-12-29T08:53:55;8.90;99.90
39219;DHT22;24934;52.752;6.964;2022-12-29T08:56:21;9.00;99.90
39219;DHT22;24934;52.752;6.964;2022-12-29T08:58:49;9.00;99.90
39219;DHT22;24934;52.752;6.964;2022-12-29T09:01:15;8.90;99.90
39219;DHT22;24934;52.752;6.964;2022-12-29T09:03:41;9.00;99.90
39219;DHT22;24934;52.752;6.964;2022-12-29T09:06:07;9.00;99.90
39219;DHT22;24934;52.752;6.964;2022-12-29T09:08:32;9.10;99.90
39219;DHT22;24934;52.752;6.964;2022-12-29T09:11:13;9.00;99.90
39219;DHT22;24934;52.752;6.964;2022-12-29T09:13:40;9.00;99.90
39219;DHT22;24934;52.752;6.964;2022-12-29T09:16:06;9.00;99.90
39219;DHT22;24934;52.752;6.964;2022-12-29T09:18:31;9.00;99.90
39219;DHT22;24934;52.752;6.964;2022-12-29T09:20:59;9.10;99.90
39219;DHT22;24934;52.752;6.964;2022-12-29T09:23:26;9.20;99.90
39219;DHT22;24934;52.752;6.964;2022-12-29T09:25:52;9.30;99.90
39219;DHT22;24934;52.752;6.964;2022-12-29T09:28:18;9.30;99.90
39219;DHT22;24934;52.752;6.964;2022-12-29T09:30:43;9.30;99.90
39219;DHT22;24934;52.752;6.964;2022-12-29T09:33:09;9.30;99.90
39219;DHT22;24934;52.752;6.964;2022-12-29T09:35:35;9.30;99.90
39219;DHT22;24934;52.752;6.964;2022-12-29T09:38:00;9.20;99.90
39219;DHT22;24934;52.752;6.964;2022-12-29T09:40:29;9.10;99.90
39219;DHT22;24934;52.752;6.964;2022-12-29T09:44:06;9.10;99.90
39219;DHT22;24934;52.752;6.964;2022-12-29T09:46:18;9.00;99.90
39219;DHT22;24934;52.752;6.964;2022-12-29T09:48:50;9.00;99.90
39219;DHT22;24934;52.752;6.964;2022-12-29T09:51:22;9.00;99.90
39219;DHT22;24934;52.752;6.964;2022-12-29T09:54:00;8.90;99.90
39219;DHT22;24934;52.752;6.964;2022-12-29T09:56:28;8.90;99.90
39219;DHT22;24934;52.752;6.964;2022-12-29T09:59:08;8.90;99.90
39219;DHT22;24934;52.752;6.964;2022-12-29T10:01:41;8.90;99.90
39219;DHT22;24934;52.752;6.964;2022-12-29T10:04:08;9.00;99.90
39219;DHT22;24934;52.752;6.964;2022-12-29T10:17:24;9.30;99.90
39219;DHT22;24934;52.752;6.964;2022-12-29T10:20:14;9.40;99.90
39219;DHT22;24934;52.752;6.964;2022-12-29T10:23:16;9.50;99.90
39219;DHT22;24934;52.752;6.964;2022-12-29T10:25:45;9.50;99.90
39219;DHT22;24934;52.752;6.964;2022-12-29T10:28:22;9.50;99.90
39219;DHT22;24934;52.752;6.964;2022-12-29T10:30:49;9.50;99.90
39219;DHT22;24934;52.752;6.964;2022-12-29T10:33:24;9.50;99.90
39219;DHT22;24934;52.752;6.964;2022-12-29T10:35:52;9.40;99.90
39219;DHT22;24934;52.752;6.964;2022-12-29T10:41:02;9.40;99.90
39219;DHT22;24934;52.752;6.964;2022-12-29T10:43:36;9.50;99.90
39219;DHT22;24934;52.752;6.964;2022-12-29T10:46:09;9.40;99.90
39219;DHT22;24934;52.752;6.964;2022-12-29T10:48:36;9.40;99.90
39219;DHT22;24934;52.752;6.964;2022-12-29T10:51:07;9.40;99.90
39219;DHT22;24934;52.752;6.964;2022-12-29T10:53:47;9.30;99.90
39219;DHT22;24934;52.752;6.964;2022-12-29T10:59:04;9.10;99.90
39219;DHT22;24934;52.752;6.964;2022-12-29T11:07:10;9.00;99.90
39219;DHT22;24934;52.752;6.964;2022-12-29T11:09:38;8.90;99.90
39219;DHT22;24934;52.752;6.964;2022-12-29T11:12:26;8.90;99.90
39219;DHT22;24934;52.752;6.964;2022-12-29T11:20:29;8.80;99.90
39219;DHT22;24934;52.752;6.964;2022-12-29T11:22:55;8.80;99.90
39219;DHT22;24934;52.752;6.964;2022-12-29T11:25:21;8.70;99.90
39219;DHT22;24934;52.752;6.964;2022-12-29T11:28:14;8.70;99.90
39219;DHT22;24934;52.752;6.964;2022-12-29T11:30:40;8.60;99.90
39219;DHT22;24934;52.752;6.964;2022-12-29T11:33:06;8.70;99.90
39219;DHT22;24934;52.752;6.964;2022-12-29T11:35:40;8.70;99.90
39219;DHT22;24934;52.752;6.964;2022-12-29T11:38:18;8.70;99.90
39219;DHT22;24934;52.752;6.964;2022-12-29T11:40:44;8.70;99.90
39219;DHT22;24934;52.752;6.964;2022-12-29T11:43:36;8.70;99.90
39219;DHT22;24934;52.752;6.964;2022-12-29T11:46:03;8.70;99.90
39219;DHT22;24934;52.752;6.964;2022-12-29T11:48:48;8.70;99.90
39219;DHT22;24934;52.752;6.964;2022-12-29T11:51:22;8.70;99.90
39219;DHT22;24934;52.752;6.964;2022-12-29T11:53:55;8.70;99.90
39219;DHT22;24934;52.752;6.964;2022-12-29T11:58:58;8.70;99.90
39219;DHT22;24934;52.752;6.964;2022-12-29T12:01:33;8.70;99.90
39219;DHT22;24934;52.752;6.964;2022-12-29T12:04:17;8.80;99.90
39219;DHT22;24934;52.752;6.964;2022-12-29T12:06:48;8.90;99.90
39219;DHT22;24934;52.752;6.964;2022-12-29T12:09:36;8.90;99.90
39219;DHT22;24934;52.752;6.964;2022-12-29T12:12:03;9.00;99.90
39219;DHT22;24934;52.752;6.964;2022-12-29T12:14:42;9.10;99.90
39219;DHT22;24934;52.752;6.964;2022-12-29T12:17:19;9.20;99.90
39219;DHT22;24934;52.752;6.964;2022-12-29T12:22:32;9.30;99.90
39219;DHT22;24934;52.752;6.964;2022-12-29T12:25:10;9.60;99.90
39219;DHT22;24934;52.752;6.964;2022-12-29T12:27:47;9.80;99.90
39219;DHT22;24934;52.752;6.964;2022-12-29T12:30:17;9.70;99.90
39219;DHT22;24934;52.752;6.964;2022-12-29T12:36:18;9.90;99.90
39219;DHT22;24934;52.752;6.964;2022-12-29T12:38:21;9.70;99.90
39219;DHT22;24934;52.752;6.964;2022-12-29T12:44:24;9.70;99.90
39219;DHT22;24934;52.752;6.964;2022-12-29T12:46:58;9.70;99.90
39219;DHT22;24934;52.752;6.964;2022-12-29T12:49:34;9.80;99.90
39219;DHT22;24934;52.752;6.964;2022-12-29T12:52:39;9.80;99.90
39219;DHT22;24934;52.752;6.964;2022-12-29T12:55:38;9.80;99.90
39219;DHT22;24934;52.752;6.964;2022-12-29T13:03:54;9.60;99.90
39219;DHT22;24934;52.752;6.964;2022-12-29T13:15:18;9.40;99.90
39219;DHT22;24934;52.752;6.964;2022-12-29T13:31:20;9.20;99.90
39219;DHT22;24934;52.752;6.964;2022-12-29T13:34:12;9.20;99.90
39219;DHT22;24934;52.752;6.964;2022-12-29T13:36:47;9.10;99.90
39219;DHT22;24934;52.752;6.964;2022-12-29T13:39:28;9.10;99.90
39219;DHT22;24934;52.752;6.964;2022-12-29T13:41:56;9.00;99.90
39219;DHT22;24934;52.752;6.964;2022-12-29T13:44:28;9.00;99.90
39219;DHT22;24934;52.752;6.964;2022-12-29T13:46:57;8.90;99.90
39219;DHT22;24934;52.752;6.964;2022-12-29T13:49:24;8.90;99.90
39219;DHT22;24934;52.752;6.964;2022-12-29T13:54:45;8.70;99.90
39219;DHT22;24934;52.752;6.964;2022-12-29T13:57:39;8.60;99.90
39219;DHT22;24934;52.752;6.964;2022-12-29T14:00:18;8.60;99.90
39219;DHT22;24934;52.752;6.964;2022-12-29T14:08:16;8.50;99.90
39219;DHT22;24934;52.752;6.964;2022-12-29T14:10:50;8.50;99.90
39219;DHT22;24934;52.752;6.964;2022-12-29T14:13:19;8.50;99.90
39219;DHT22;24934;52.752;6.964;2022-12-29T14:15:55;8.60;99.90
39219;DHT22;24934;52.752;6.964;2022-12-29T14:18:24;8.50;99.90
39219;DHT22;24934;52.752;6.964;2022-12-29T14:23:49;8.50;99.90
39219;DHT22;24934;52.752;6.964;2022-12-29T14:28:56;8.50;99.90
39219;DHT22;24934;52.752;6.964;2022-12-29T14:36:52;8.50;99.90
39219;DHT22;24934;52.752;6.964;2022-12-29T14:39:38;8.50;99.90
39219;DHT22;24934;52.752;6.964;2022-12-29T14:44:45;8.60;99.90
39219;DHT22;24934;52.752;6.964;2022-12-29T14:49:50;8.60;99.90
39219;DHT22;24934;52.752;6.964;2022-12-29T14:52:23;8.60;99.90
39219;DHT22;24934;52.752;6.964;2022-12-29T14:57:44;8.70;99.90
39219;DHT22;24934;52.752;6.964;2022-12-29T15:00:22;8.60;99.90
39219;DHT22;24934;52.752;6.964;2022-12-29T15:03:05;8.60;99.90
39219;DHT22;24934;52.752;6.964;2022-12-29T15:05:36;8.60;99.90
39219;DHT22;24934;52.752;6.964;2022-12-29T15:08:07;8.60;99.90
39219;DHT22;24934;52.752;6.964;2022-12-29T15:10:49;8.60;99.90
39219;DHT22;24934;52.752;6.964;2022-12-29T15:13:24;8.60;99.90
39219;DHT22;24934;52.752;6.964;2022-12-29T15:15:51;8.60;99.90
39219;DHT22;24934;52.752;6.964;2022-12-29T15:18:22;8.60;99.90
39219;DHT22;24934;52.752;6.964;2022-12-29T15:21:00;8.60;99.90
39219;DHT22;24934;52.752;6.964;2022-12-29T15:23:29;8.50;99.90
39219;DHT22;24934;52.752;6.964;2022-12-29T15:26:07;8.50;99.90
39219;DHT22;24934;52.752;6.964;2022-12-29T15:28:42;8.50;99.90
39219;DHT22;24934;52.752;6.964;2022-12-29T15:31:22;8.50;99.90
39219;DHT22;24934;52.752;6.964;2022-12-29T15:34:02;8.50;99.90
39219;DHT22;24934;52.752;6.964;2022-12-29T15:36:29;8.40;99.90
39219;DHT22;24934;52.752;6.964;2022-12-29T15:39:25;8.40;99.90
39219;DHT22;24934;52.752;6.964;2022-12-29T15:44:51;8.40;99.90
39219;DHT22;24934;52.752;6.964;2022-12-29T15:49:47;8.30;99.90
39219;DHT22;24934;52.752;6.964;2022-12-29T15:52:18;8.30;99.90
39219;DHT22;24934;52.752;6.964;2022-12-29T15:54:44;8.20;99.90
39219;DHT22;24934;52.752;6.964;2022-12-29T15:57:37;8.20;99.90
39219;DHT22;24934;52.752;6.964;2022-12-29T16:00:04;8.20;99.90
39219;DHT22;24934;52.752;6.964;2022-12-29T16:02:46;8.30;99.90
39219;DHT22;24934;52.752;6.964;2022-12-29T16:05:18;8.30;99.90
39219;DHT22;24934;52.752;6.964;2022-12-29T16:07:56;8.30;99.90
39219;DHT22;24934;52.752;6.964;2022-12-29T16:10:36;8.30;99.90
39219;DHT22;24934;52.752;6.964;2022-12-29T16:15:48;8.30;99.90
39219;DHT22;24934;52.752;6.964;2022-12-29T16:18:24;8.30;99.90
39219;DHT22;24934;52.752;6.964;2022-12-29T16:20:51;8.30;99.90
39219;DHT22;24934;52.752;6.964;2022-12-29T16:23:24;8.20;99.90
39219;DHT22;24934;52.752;6.964;2022-12-29T16:25:52;8.20;99.90
39219;DHT22;24934;52.752;6.964;2022-12-29T16:28:26;8.20;99.90
39219;DHT22;24934;52.752;6.964;2022-12-29T16:31:02;8.20;99.90
39219;DHT22;24934;52.752;6.964;2022-12-29T16:33:53;8.10;99.90
39219;DHT22;24934;52.752;6.964;2022-12-29T16:36:31;8.20;99.90
39219;DHT22;24934;52.752;6.964;2022-12-29T16:39:35;8.10;99.90
39219;DHT22;24934;52.752;6.964;2022-12-29T16:42:32;8.10;99.90
39219;DHT22;24934;52.752;6.964;2022-12-29T16:44:47;8.00;99.90
39219;DHT22;24934;52.752;6.964;2022-12-29T16:47:19;8.10;99.90
39219;DHT22;24934;52.752;6.964;2022-12-29T16:49:50;8.00;99.90
39219;DHT22;24934;52.752;6.964;2022-12-29T16:52:28;8.00;99.90
39219;DHT22;24934;52.752;6.964;2022-12-29T16:54:57;8.00;99.90
39219;DHT22;24934;52.752;6.964;2022-12-29T16:57:32;8.00;99.90
39219;DHT22;24934;52.752;6.964;2022-12-29T17:00:05;8.00;99.90
39219;DHT22;24934;52.752;6.964;2022-12-29T17:02:32;7.90;99.90
39219;DHT22;24934;52.752;6.964;2022-12-29T17:04:59;7.90;99.90
39219;DHT22;24934;52.752;6.964;2022-12-29T17:07:27;7.90;99.90
39219;DHT22;24934;52.752;6.964;2022-12-29T17:09:53;7.80;99.90
39219;DHT22;24934;52.752;6.964;2022-12-29T17:12:27;7.80;99.90
39219;DHT22;24934;52.752;6.964;2022-12-29T17:15:03;7.80;99.90
39219;DHT22;24934;52.752;6.964;2022-12-29T17:17:48;7.80;99.90
39219;DHT22;24934;52.752;6.964;2022-12-29T17:20:15;7.70;99.90
39219;DHT22;24934;52.752;6.964;2022-12-29T17:22:41;7.80;99.90
39219;DHT22;24934;52.752;6.964;2022-12-29T17:25:15;7.80;99.90
39219;DHT22;24934;52.752;6.964;2022-12-29T17:27:55;7.80;99.90
39219;DHT22;24934;52.752;6.964;2022-12-29T17:30:24;7.80;99.90
39219;DHT22;24934;52.752;6.964;2022-12-29T17:33:15;7.80;99.90
39219;DHT22;24934;52.752;6.964;2022-12-29T17:35:40;7.80;99.90
39219;DHT22;24934;52.752;6.964;2022-12-29T17:38:28;7.80;99.90
39219;DHT22;24934;52.752;6.964;2022-12-29T17:40:54;7.90;99.90
39219;DHT22;24934;52.752;6.964;2022-12-29T17:43:20;7.90;99.90
39219;DHT22;24934;52.752;6.964;2022-12-29T17:45:49;7.90;99.90
39219;DHT22;24934;52.752;6.964;2022-12-29T17:48:17;8.00;99.90
39219;DHT22;24934;52.752;6.964;2022-12-29T17:50:46;8.00;99.90
39219;DHT22;24934;52.752;6.964;2022-12-29T17:53:20;8.00;99.90
39219;DHT22;24934;52.752;6.964;2022-12-29T17:55:47;8.00;99.90
39219;DHT22;24934;52.752;6.964;2022-12-29T17:58:16;8.00;99.90
39219;DHT22;24934;52.752;6.964;2022-12-29T18:00:42;8.00;99.90
39219;DHT22;24934;52.752;6.964;2022-12-29T18:03:14;8.00;99.90
39219;DHT22;24934;52.752;6.964;2022-12-29T18:05:39;8.00;99.90
39219;DHT22;24934;52.752;6.964;2022-12-29T18:08:07;8.00;99.90
39219;DHT22;24934;52.752;6.964;2022-12-29T18:10:33;7.90;99.90
39219;DHT22;24934;52.752;6.964;2022-12-29T18:12:59;7.80;99.90
39219;DHT22;24934;52.752;6.964;2022-12-29T18:15:28;7.60;99.90